sensor_id;sensor_type;location;lat;lon;timestamp;P1;durP1;ratioP1;P2;durP2;ratioP2
33453;SDS011;39400;49.744;7.012;2022-10-16T00:01:32;1.48;;;0.70;;
33453;SDS011;39400;49.744;7.012;2022-10-16T00:03:59;1.08;;;0.90;;
33453;SDS011;39400;49.744;7.012;2022-10-16T00:06:27;2.65;;;1.05;;
33453;SDS011;39400;49.744;7.012;2022-10-16T00:08:55;0.87;;;0.80;;
33453;SDS011;39400;49.744;7.012;2022-10-16T00:11:24;1.27;;;0.70;;
33453;SDS011;39400;49.744;7.012;2022-10-16T00:13:58;3.60;;;1.20;;
33453;SDS011;39400;49.744;7.012;2022-10-16T00:16:26;1.45;;;1.02;;
33453;SDS011;39400;49.744;7.012;2022-10-16T00:18:55;5.38;;;1.48;;
33453;SDS011;39400;49.744;7.012;2022-10-16T00:21:23;5.35;;;1.33;;
33453;SDS011;39400;49.744;7.012;2022-10-16T00:23:55;2.63;;;1.25;;
33453;SDS011;39400;49.744;7.012;2022-10-16T00:26:26;5.53;;;2.20;;
33453;SDS011;39400;49.744;7.012;2022-10-16T00:28:54;2.00;;;1.40;;
33453;SDS011;39400;49.744;7.012;2022-10-16T00:31:22;3.88;;;1.48;;
33453;SDS011;39400;49.744;7.012;2022-10-16T00:33:49;3.25;;;1.10;;
33453;SDS011;39400;49.744;7.012;2022-10-16T00:36:18;5.97;;;1.52;;
33453;SDS011;39400;49.744;7.012;2022-10-16T00:38:51;1.77;;;1.13;;
33453;SDS011;39400;49.744;7.012;2022-10-16T00:41:22;2.70;;;1.45;;
33453;SDS011;39400;49.744;7.012;2022-10-16T00:43:57;1.35;;;0.90;;
33453;SDS011;39400;49.744;7.012;2022-10-16T00:46:27;1.02;;;0.73;;
33453;SDS011;39400;49.744;7.012;2022-10-16T00:49:06;1.05;;;0.88;;
33453;SDS011;39400;49.744;7.012;2022-10-16T00:51:46;1.67;;;0.90;;
33453;SDS011;39400;49.744;7.012;2022-10-16T00:54:17;0.70;;;0.70;;
33453;SDS011;39400;49.744;7.012;2022-10-16T00:56:58;0.80;;;0.65;;
33453;SDS011;39400;49.744;7.012;2022-10-16T00:59:36;1.30;;;1.08;;
33453;SDS011;39400;49.744;7.012;2022-10-16T01:02:07;1.92;;;0.95;;
33453;SDS011;39400;49.744;7.012;2022-10-16T01:04:36;1.20;;;0.80;;
33453;SDS011;39400;49.744;7.012;2022-10-16T01:07:12;2.72;;;0.82;;
33453;SDS011;39400;49.744;7.012;2022-10-16T01:09:46;1.20;;;0.60;;
33453;SDS011;39400;49.744;7.012;2022-10-16T01:12:50;1.10;;;0.60;;
33453;SDS011;39400;49.744;7.012;2022-10-16T01:18:37;1.90;;;0.70;;
33453;SDS011;39400;49.744;7.012;2022-10-16T01:21:10;1.30;;;0.75;;
33453;SDS011;39400;49.744;7.012;2022-10-16T01:26:43;0.73;;;0.55;;
33453;SDS011;39400;49.744;7.012;2022-10-16T01:29:37;3.25;;;0.95;;
33453;SDS011;39400;49.744;7.012;2022-10-16T01:34:46;1.02;;;0.55;;
33453;SDS011;39400;49.744;7.012;2022-10-16T01:37:29;1.00;;;0.63;;
33453;SDS011;39400;49.744;7.012;2022-10-16T01:40:02;1.38;;;0.60;;
33453;SDS011;39400;49.744;7.012;2022-10-16T01:42:35;1.05;;;0.70;;
33453;SDS011;39400;49.744;7.012;2022-10-16T01:45:06;1.17;;;0.63;;
33453;SDS011;39400;49.744;7.012;2022-10-16T01:47:35;0.68;;;0.68;;
33453;SDS011;39400;49.744;7.012;2022-10-16T01:50:03;0.65;;;0.40;;
33453;SDS011;39400;49.744;7.012;2022-10-16T01:52:32;6.50;;;1.73;;
33453;SDS011;39400;49.744;7.012;2022-10-16T01:55:03;0.95;;;0.40;;
33453;SDS011;39400;49.744;7.012;2022-10-16T01:57:33;0.47;;;0.43;;
33453;SDS011;39400;49.744;7.012;2022-10-16T02:00:07;0.50;;;0.50;;
33453;SDS011;39400;49.744;7.012;2022-10-16T02:02:40;2.85;;;0.47;;
33453;SDS011;39400;49.744;7.012;2022-10-16T02:07:59;1.13;;;0.40;;
33453;SDS011;39400;49.744;7.012;2022-10-16T02:10:31;1.05;;;0.55;;
33453;SDS011;39400;49.744;7.012;2022-10-16T02:13:13;0.50;;;0.50;;
33453;SDS011;39400;49.744;7.012;2022-10-16T02:15:46;2.67;;;0.70;;
33453;SDS011;39400;49.744;7.012;2022-10-16T02:18:13;0.40;;;0.40;;
33453;SDS011;39400;49.744;7.012;2022-10-16T02:23:37;0.40;;;0.40;;
33453;SDS011;39400;49.744;7.012;2022-10-16T02:29:21;0.70;;;0.53;;
33453;SDS011;39400;49.744;7.012;2022-10-16T02:32:01;1.35;;;0.50;;
33453;SDS011;39400;49.744;7.012;2022-10-16T02:34:31;0.68;;;0.40;;
33453;SDS011;39400;49.744;7.012;2022-10-16T02:36:59;3.03;;;0.50;;
33453;SDS011;39400;49.744;7.012;2022-10-16T02:39:28;3.72;;;0.40;;
33453;SDS011;39400;49.744;7.012;2022-10-16T02:41:56;0.47;;;0.40;;
33453;SDS011;39400;49.744;7.012;2022-10-16T02:44:23;1.67;;;0.43;;
33453;SDS011;39400;49.744;7.012;2022-10-16T02:46:50;0.40;;;0.40;;
33453;SDS011;39400;49.744;7.012;2022-10-16T02:49:17;0.30;;;0.30;;
33453;SDS011;39400;49.744;7.012;2022-10-16T02:51:45;1.75;;;0.40;;
33453;SDS011;39400;49.744;7.012;2022-10-16T02:54:12;1.83;;;0.60;;
33453;SDS011;39400;49.744;7.012;2022-10-16T02:56:39;2.67;;;0.65;;
33453;SDS011;39400;49.744;7.012;2022-10-16T02:59:06;0.47;;;0.40;;
33453;SDS011;39400;49.744;7.012;2022-10-16T03:01:34;1.08;;;0.55;;
33453;SDS011;39400;49.744;7.012;2022-10-16T03:04:02;0.50;;;0.50;;
33453;SDS011;39400;49.744;7.012;2022-10-16T03:06:30;0.82;;;0.40;;
33453;SDS011;39400;49.744;7.012;2022-10-16T03:08:57;0.50;;;0.50;;
33453;SDS011;39400;49.744;7.012;2022-10-16T03:11:24;0.65;;;0.50;;
33453;SDS011;39400;49.744;7.012;2022-10-16T03:13:51;2.42;;;0.70;;
33453;SDS011;39400;49.744;7.012;2022-10-16T03:16:18;3.47;;;0.88;;
33453;SDS011;39400;49.744;7.012;2022-10-16T03:18:49;0.90;;;0.70;;
33453;SDS011;39400;49.744;7.012;2022-10-16T03:21:16;0.68;;;0.50;;
33453;SDS011;39400;49.744;7.012;2022-10-16T03:23:43;0.52;;;0.52;;
33453;SDS011;39400;49.744;7.012;2022-10-16T03:26:10;0.40;;;0.40;;
33453;SDS011;39400;49.744;7.012;2022-10-16T03:28:37;1.42;;;0.55;;
33453;SDS011;39400;49.744;7.012;2022-10-16T03:31:05;0.43;;;0.40;;
33453;SDS011;39400;49.744;7.012;2022-10-16T03:33:32;1.50;;;0.60;;
33453;SDS011;39400;49.744;7.012;2022-10-16T03:35:59;2.25;;;1.23;;
33453;SDS011;39400;49.744;7.012;2022-10-16T03:38:26;2.88;;;0.60;;
33453;SDS011;39400;49.744;7.012;2022-10-16T03:40:53;0.60;;;0.40;;
33453;SDS011;39400;49.744;7.012;2022-10-16T03:43:21;0.40;;;0.40;;
33453;SDS011;39400;49.744;7.012;2022-10-16T03:45:49;0.93;;;0.50;;
33453;SDS011;39400;49.744;7.012;2022-10-16T03:48:18;0.60;;;0.60;;
33453;SDS011;39400;49.744;7.012;2022-10-16T03:50:46;0.60;;;0.60;;
33453;SDS011;39400;49.744;7.012;2022-10-16T03:53:15;0.47;;;0.47;;
33453;SDS011;39400;49.744;7.012;2022-10-16T03:55:42;0.50;;;0.50;;
33453;SDS011;39400;49.744;7.012;2022-10-16T03:58:10;3.20;;;0.70;;
33453;SDS011;39400;49.744;7.012;2022-10-16T04:00:41;1.75;;;0.60;;
33453;SDS011;39400;49.744;7.012;2022-10-16T04:03:11;1.58;;;0.90;;
33453;SDS011;39400;49.744;7.012;2022-10-16T04:05:39;0.60;;;0.60;;
33453;SDS011;39400;49.744;7.012;2022-10-16T04:08:06;1.80;;;1.00;;
33453;SDS011;39400;49.744;7.012;2022-10-16T04:10:33;1.55;;;0.80;;
33453;SDS011;39400;49.744;7.012;2022-10-16T04:13:00;1.10;;;1.00;;
33453;SDS011;39400;49.744;7.012;2022-10-16T04:15:27;1.17;;;0.90;;
33453;SDS011;39400;49.744;7.012;2022-10-16T04:17:55;1.30;;;1.10;;
33453;SDS011;39400;49.744;7.012;2022-10-16T04:20:22;1.70;;;1.40;;
33453;SDS011;39400;49.744;7.012;2022-10-16T04:22:49;1.20;;;1.00;;
33453;SDS011;39400;49.744;7.012;2022-10-16T04:25:16;0.85;;;0.80;;
33453;SDS011;39400;49.744;7.012;2022-10-16T04:27:43;1.20;;;1.00;;
33453;SDS011;39400;49.744;7.012;2022-10-16T04:30:12;1.83;;;0.73;;
33453;SDS011;39400;49.744;7.012;2022-10-16T04:32:39;1.50;;;1.20;;
33453;SDS011;39400;49.744;7.012;2022-10-16T04:35:07;0.90;;;0.90;;
33453;SDS011;39400;49.744;7.012;2022-10-16T04:37:34;1.10;;;1.00;;
33453;SDS011;39400;49.744;7.012;2022-10-16T04:40:01;1.38;;;0.88;;
33453;SDS011;39400;49.744;7.012;2022-10-16T04:42:29;2.53;;;1.10;;
33453;SDS011;39400;49.744;7.012;2022-10-16T04:44:56;1.30;;;1.02;;
33453;SDS011;39400;49.744;7.012;2022-10-16T04:47:23;1.20;;;1.00;;
33453;SDS011;39400;49.744;7.012;2022-10-16T04:49:51;7.32;;;1.55;;
33453;SDS011;39400;49.744;7.012;2022-10-16T04:52:18;1.83;;;1.38;;
33453;SDS011;39400;49.744;7.012;2022-10-16T04:54:45;3.00;;;1.30;;
33453;SDS011;39400;49.744;7.012;2022-10-16T04:57:12;3.05;;;1.40;;
33453;SDS011;39400;49.744;7.012;2022-10-16T04:59:40;4.57;;;1.75;;
33453;SDS011;39400;49.744;7.012;2022-10-16T05:02:07;3.00;;;1.92;;
33453;SDS011;39400;49.744;7.012;2022-10-16T05:04:34;3.17;;;1.42;;
33453;SDS011;39400;49.744;7.012;2022-10-16T05:07:01;1.98;;;1.38;;
33453;SDS011;39400;49.744;7.012;2022-10-16T05:09:28;2.88;;;2.00;;
33453;SDS011;39400;49.744;7.012;2022-10-16T05:11:55;4.55;;;1.70;;
33453;SDS011;39400;49.744;7.012;2022-10-16T05:14:22;2.22;;;1.40;;
33453;SDS011;39400;49.744;7.012;2022-10-16T05:16:49;8.13;;;1.63;;
33453;SDS011;39400;49.744;7.012;2022-10-16T05:19:17;2.92;;;2.03;;
33453;SDS011;39400;49.744;7.012;2022-10-16T05:21:59;4.25;;;2.00;;
33453;SDS011;39400;49.744;7.012;2022-10-16T05:24:27;2.67;;;2.08;;
33453;SDS011;39400;49.744;7.012;2022-10-16T05:26:54;4.50;;;2.00;;
33453;SDS011;39400;49.744;7.012;2022-10-16T05:29:21;5.38;;;1.80;;
33453;SDS011;39400;49.744;7.012;2022-10-16T05:31:52;5.60;;;2.10;;
33453;SDS011;39400;49.744;7.012;2022-10-16T05:34:20;2.60;;;1.77;;
33453;SDS011;39400;49.744;7.012;2022-10-16T05:36:47;3.00;;;1.73;;
33453;SDS011;39400;49.744;7.012;2022-10-16T05:39:14;1.60;;;1.40;;
33453;SDS011;39400;49.744;7.012;2022-10-16T05:41:43;6.53;;;1.90;;
33453;SDS011;39400;49.744;7.012;2022-10-16T05:44:10;2.25;;;1.42;;
33453;SDS011;39400;49.744;7.012;2022-10-16T05:46:37;1.58;;;1.20;;
33453;SDS011;39400;49.744;7.012;2022-10-16T05:49:04;1.88;;;1.60;;
33453;SDS011;39400;49.744;7.012;2022-10-16T05:51:31;2.13;;;1.27;;
33453;SDS011;39400;49.744;7.012;2022-10-16T05:53:58;1.33;;;1.10;;
33453;SDS011;39400;49.744;7.012;2022-10-16T05:56:25;1.10;;;1.00;;
33453;SDS011;39400;49.744;7.012;2022-10-16T05:58:53;2.65;;;2.03;;
33453;SDS011;39400;49.744;7.012;2022-10-16T06:01:20;1.80;;;1.20;;
33453;SDS011;39400;49.744;7.012;2022-10-16T06:03:51;4.43;;;1.60;;
33453;SDS011;39400;49.744;7.012;2022-10-16T06:06:19;2.05;;;1.70;;
33453;SDS011;39400;49.744;7.012;2022-10-16T06:08:49;2.00;;;1.80;;
33453;SDS011;39400;49.744;7.012;2022-10-16T06:11:17;3.92;;;2.10;;
33453;SDS011;39400;49.744;7.012;2022-10-16T06:13:56;5.17;;;3.03;;
33453;SDS011;39400;49.744;7.012;2022-10-16T06:16:25;5.25;;;3.33;;
33453;SDS011;39400;49.744;7.012;2022-10-16T06:18:53;3.08;;;1.88;;
33453;SDS011;39400;49.744;7.012;2022-10-16T06:21:23;2.38;;;1.65;;
33453;SDS011;39400;49.744;7.012;2022-10-16T06:23:52;3.70;;;1.50;;
33453;SDS011;39400;49.744;7.012;2022-10-16T06:26:21;2.10;;;1.50;;
33453;SDS011;39400;49.744;7.012;2022-10-16T06:28:50;2.25;;;1.40;;
33453;SDS011;39400;49.744;7.012;2022-10-16T06:31:17;3.13;;;1.85;;
33453;SDS011;39400;49.744;7.012;2022-10-16T06:33:44;2.17;;;1.70;;
33453;SDS011;39400;49.744;7.012;2022-10-16T06:36:15;2.30;;;1.52;;
33453;SDS011;39400;49.744;7.012;2022-10-16T06:38:46;1.77;;;1.20;;
33453;SDS011;39400;49.744;7.012;2022-10-16T06:41:17;6.07;;;2.35;;
33453;SDS011;39400;49.744;7.012;2022-10-16T06:43:46;2.40;;;1.70;;
33453;SDS011;39400;49.744;7.012;2022-10-16T06:46:14;2.47;;;1.95;;
33453;SDS011;39400;49.744;7.012;2022-10-16T06:48:43;3.75;;;1.73;;
33453;SDS011;39400;49.744;7.012;2022-10-16T06:51:12;2.53;;;1.75;;
33453;SDS011;39400;49.744;7.012;2022-10-16T06:53:45;4.60;;;3.45;;
33453;SDS011;39400;49.744;7.012;2022-10-16T06:56:29;9.15;;;4.40;;
33453;SDS011;39400;49.744;7.012;2022-10-16T06:58:58;8.95;;;4.30;;
33453;SDS011;39400;49.744;7.012;2022-10-16T07:01:26;8.35;;;5.63;;
33453;SDS011;39400;49.744;7.012;2022-10-16T07:03:53;5.40;;;3.97;;
33453;SDS011;39400;49.744;7.012;2022-10-16T07:06:22;5.15;;;3.30;;
33453;SDS011;39400;49.744;7.012;2022-10-16T07:08:50;3.63;;;2.45;;
33453;SDS011;39400;49.744;7.012;2022-10-16T07:11:19;6.15;;;2.97;;
33453;SDS011;39400;49.744;7.012;2022-10-16T07:13:48;3.50;;;1.95;;
33453;SDS011;39400;49.744;7.012;2022-10-16T07:16:23;3.63;;;2.42;;
33453;SDS011;39400;49.744;7.012;2022-10-16T07:18:53;7.07;;;2.50;;
33453;SDS011;39400;49.744;7.012;2022-10-16T07:21:27;2.80;;;2.10;;
33453;SDS011;39400;49.744;7.012;2022-10-16T07:23:57;5.57;;;3.47;;
33453;SDS011;39400;49.744;7.012;2022-10-16T07:26:26;8.32;;;3.17;;
33453;SDS011;39400;49.744;7.012;2022-10-16T07:28:54;4.68;;;3.10;;
33453;SDS011;39400;49.744;7.012;2022-10-16T07:31:22;4.32;;;2.92;;
33453;SDS011;39400;49.744;7.012;2022-10-16T07:33:49;9.40;;;4.40;;
33453;SDS011;39400;49.744;7.012;2022-10-16T07:36:18;7.57;;;3.28;;
33453;SDS011;39400;49.744;7.012;2022-10-16T07:38:46;4.22;;;3.15;;
33453;SDS011;39400;49.744;7.012;2022-10-16T07:41:15;4.78;;;2.63;;
33453;SDS011;39400;49.744;7.012;2022-10-16T07:43:47;3.65;;;2.17;;
33453;SDS011;39400;49.744;7.012;2022-10-16T07:46:16;4.72;;;2.55;;
33453;SDS011;39400;49.744;7.012;2022-10-16T07:48:44;6.30;;;3.05;;
33453;SDS011;39400;49.744;7.012;2022-10-16T07:51:17;4.80;;;3.13;;
33453;SDS011;39400;49.744;7.012;2022-10-16T07:53:46;5.57;;;3.88;;
33453;SDS011;39400;49.744;7.012;2022-10-16T07:56:14;6.85;;;5.65;;
33453;SDS011;39400;49.744;7.012;2022-10-16T07:58:42;8.27;;;6.07;;
33453;SDS011;39400;49.744;7.012;2022-10-16T08:01:11;4.80;;;3.65;;
33453;SDS011;39400;49.744;7.012;2022-10-16T08:03:46;4.10;;;3.10;;
33453;SDS011;39400;49.744;7.012;2022-10-16T08:06:15;3.38;;;2.33;;
33453;SDS011;39400;49.744;7.012;2022-10-16T08:08:47;4.45;;;2.95;;
33453;SDS011;39400;49.744;7.012;2022-10-16T08:11:14;4.35;;;2.38;;
33453;SDS011;39400;49.744;7.012;2022-10-16T08:13:42;4.22;;;3.05;;
33453;SDS011;39400;49.744;7.012;2022-10-16T08:16:09;6.68;;;3.47;;
33453;SDS011;39400;49.744;7.012;2022-10-16T08:18:37;4.85;;;3.35;;
33453;SDS011;39400;49.744;7.012;2022-10-16T08:21:05;8.80;;;4.18;;
33453;SDS011;39400;49.744;7.012;2022-10-16T08:23:33;5.35;;;3.95;;
33453;SDS011;39400;49.744;7.012;2022-10-16T08:26:05;8.85;;;5.82;;
33453;SDS011;39400;49.744;7.012;2022-10-16T08:28:34;7.57;;;5.53;;
33453;SDS011;39400;49.744;7.012;2022-10-16T08:31:10;8.32;;;5.60;;
33453;SDS011;39400;49.744;7.012;2022-10-16T08:33:40;7.97;;;5.35;;
33453;SDS011;39400;49.744;7.012;2022-10-16T08:38:37;8.55;;;5.95;;
33453;SDS011;39400;49.744;7.012;2022-10-16T08:49:34;7.65;;;6.40;;
33453;SDS011;39400;49.744;7.012;2022-10-16T08:52:03;12.18;;;9.57;;
33453;SDS011;39400;49.744;7.012;2022-10-16T08:54:37;9.80;;;6.75;;
33453;SDS011;39400;49.744;7.012;2022-10-16T08:57:13;9.05;;;6.32;;
33453;SDS011;39400;49.744;7.012;2022-10-16T08:59:50;9.88;;;7.57;;
33453;SDS011;39400;49.744;7.012;2022-10-16T09:02:26;8.63;;;6.47;;
33453;SDS011;39400;49.744;7.012;2022-10-16T09:07:58;13.63;;;7.55;;
33453;SDS011;39400;49.744;7.012;2022-10-16T09:10:49;9.45;;;7.43;;
33453;SDS011;39400;49.744;7.012;2022-10-16T09:13:26;10.00;;;7.38;;
33453;SDS011;39400;49.744;7.012;2022-10-16T09:23:53;11.13;;;6.38;;
33453;SDS011;39400;49.744;7.012;2022-10-16T09:26:24;10.95;;;7.28;;
33453;SDS011;39400;49.744;7.012;2022-10-16T09:28:52;11.02;;;7.60;;
33453;SDS011;39400;49.744;7.012;2022-10-16T09:31:21;14.13;;;9.52;;
33453;SDS011;39400;49.744;7.012;2022-10-16T09:38:46;11.75;;;7.97;;
33453;SDS011;39400;49.744;7.012;2022-10-16T09:43:55;11.25;;;7.95;;
33453;SDS011;39400;49.744;7.012;2022-10-16T09:49:28;8.30;;;6.18;;
33453;SDS011;39400;49.744;7.012;2022-10-16T09:52:02;7.00;;;5.25;;
33453;SDS011;39400;49.744;7.012;2022-10-16T09:54:30;6.60;;;4.57;;
33453;SDS011;39400;49.744;7.012;2022-10-16T09:57:05;7.72;;;3.97;;
33453;SDS011;39400;49.744;7.012;2022-10-16T09:59:49;5.50;;;3.58;;
33453;SDS011;39400;49.744;7.012;2022-10-16T10:02:18;6.35;;;2.17;;
33453;SDS011;39400;49.744;7.012;2022-10-16T10:04:50;3.78;;;2.40;;
33453;SDS011;39400;49.744;7.012;2022-10-16T10:07:28;2.72;;;2.10;;
33453;SDS011;39400;49.744;7.012;2022-10-16T10:10:03;2.20;;;1.52;;
33453;SDS011;39400;49.744;7.012;2022-10-16T10:12:32;4.43;;;2.03;;
33453;SDS011;39400;49.744;7.012;2022-10-16T10:15:06;1.60;;;1.50;;
33453;SDS011;39400;49.744;7.012;2022-10-16T10:17:50;1.90;;;1.70;;
33453;SDS011;39400;49.744;7.012;2022-10-16T10:20:32;4.57;;;2.00;;
33453;SDS011;39400;49.744;7.012;2022-10-16T10:23:13;3.17;;;2.20;;
33453;SDS011;39400;49.744;7.012;2022-10-16T10:25:55;2.25;;;1.98;;
33453;SDS011;39400;49.744;7.012;2022-10-16T10:28:44;4.20;;;2.00;;
33453;SDS011;39400;49.744;7.012;2022-10-16T10:34:00;2.15;;;1.55;;
33453;SDS011;39400;49.744;7.012;2022-10-16T10:36:49;1.88;;;1.45;;
33453;SDS011;39400;49.744;7.012;2022-10-16T10:39:32;3.35;;;1.38;;
33453;SDS011;39400;49.744;7.012;2022-10-16T10:44:53;1.42;;;1.33;;
33453;SDS011;39400;49.744;7.012;2022-10-16T10:48:17;2.35;;;1.33;;
33453;SDS011;39400;49.744;7.012;2022-10-16T10:50:22;1.73;;;1.52;;
33453;SDS011;39400;49.744;7.012;2022-10-16T10:56:28;2.03;;;1.35;;
33453;SDS011;39400;49.744;7.012;2022-10-16T11:07:28;1.33;;;1.00;;
33453;SDS011;39400;49.744;7.012;2022-10-16T11:10:08;1.48;;;1.27;;
33453;SDS011;39400;49.744;7.012;2022-10-16T11:12:42;1.55;;;1.30;;
33453;SDS011;39400;49.744;7.012;2022-10-16T11:15:18;8.00;;;1.63;;
33453;SDS011;39400;49.744;7.012;2022-10-16T11:17:52;2.17;;;1.10;;
33453;SDS011;39400;49.744;7.012;2022-10-16T11:20:25;1.67;;;1.00;;
33453;SDS011;39400;49.744;7.012;2022-10-16T11:22:58;4.07;;;1.58;;
33453;SDS011;39400;49.744;7.012;2022-10-16T11:25:27;2.40;;;1.58;;
33453;SDS011;39400;49.744;7.012;2022-10-16T11:27:57;4.60;;;1.90;;
33453;SDS011;39400;49.744;7.012;2022-10-16T11:30:29;2.80;;;1.73;;
33453;SDS011;39400;49.744;7.012;2022-10-16T11:35:51;2.90;;;1.80;;
33453;SDS011;39400;49.744;7.012;2022-10-16T11:50:28;3.67;;;2.35;;
33453;SDS011;39400;49.744;7.012;2022-10-16T11:53:12;4.18;;;2.38;;
33453;SDS011;39400;49.744;7.012;2022-10-16T11:55:58;2.92;;;2.10;;
33453;SDS011;39400;49.744;7.012;2022-10-16T11:59:13;2.17;;;1.95;;
33453;SDS011;39400;49.744;7.012;2022-10-16T12:06:51;3.45;;;2.58;;
33453;SDS011;39400;49.744;7.012;2022-10-16T12:09:28;2.97;;;2.00;;
33453;SDS011;39400;49.744;7.012;2022-10-16T12:11:57;4.38;;;2.53;;
33453;SDS011;39400;49.744;7.012;2022-10-16T12:19:27;8.05;;;2.25;;
33453;SDS011;39400;49.744;7.012;2022-10-16T12:21:56;2.33;;;2.00;;
33453;SDS011;39400;49.744;7.012;2022-10-16T12:27:22;3.05;;;1.98;;
33453;SDS011;39400;49.744;7.012;2022-10-16T12:29:57;3.13;;;1.75;;
33453;SDS011;39400;49.744;7.012;2022-10-16T12:32:29;2.33;;;1.80;;
33453;SDS011;39400;49.744;7.012;2022-10-16T12:35:18;4.75;;;2.25;;
33453;SDS011;39400;49.744;7.012;2022-10-16T12:37:48;4.00;;;2.75;;
33453;SDS011;39400;49.744;7.012;2022-10-16T12:40:29;4.72;;;2.50;;
33453;SDS011;39400;49.744;7.012;2022-10-16T12:42:59;3.25;;;2.50;;
33453;SDS011;39400;49.744;7.012;2022-10-16T12:45:37;9.68;;;2.70;;
33453;SDS011;39400;49.744;7.012;2022-10-16T12:48:04;2.25;;;1.88;;
33453;SDS011;39400;49.744;7.012;2022-10-16T12:50:47;2.80;;;2.03;;
33453;SDS011;39400;49.744;7.012;2022-10-16T12:53:18;3.20;;;2.10;;
33453;SDS011;39400;49.744;7.012;2022-10-16T12:58:28;4.47;;;2.30;;
33453;SDS011;39400;49.744;7.012;2022-10-16T13:01:24;2.45;;;2.25;;
33453;SDS011;39400;49.744;7.012;2022-10-16T13:04:04;3.10;;;2.47;;
33453;SDS011;39400;49.744;7.012;2022-10-16T13:13:09;5.18;;;3.90;;
33453;SDS011;39400;49.744;7.012;2022-10-16T13:18:26;4.20;;;3.33;;
33453;SDS011;39400;49.744;7.012;2022-10-16T13:21:04;10.23;;;5.20;;
33453;SDS011;39400;49.744;7.012;2022-10-16T13:23:57;4.78;;;4.07;;
33453;SDS011;39400;49.744;7.012;2022-10-16T13:26:50;5.43;;;4.07;;
33453;SDS011;39400;49.744;7.012;2022-10-16T13:29:28;8.55;;;5.72;;
33453;SDS011;39400;49.744;7.012;2022-10-16T13:31:58;11.88;;;3.85;;
33453;SDS011;39400;49.744;7.012;2022-10-16T13:34:27;10.45;;;3.80;;
33453;SDS011;39400;49.744;7.012;2022-10-16T13:36:55;4.32;;;3.88;;
33453;SDS011;39400;49.744;7.012;2022-10-16T13:39:24;5.38;;;3.88;;
33453;SDS011;39400;49.744;7.012;2022-10-16T13:42:06;5.70;;;4.70;;
33453;SDS011;39400;49.744;7.012;2022-10-16T13:44:42;6.95;;;5.05;;
33453;SDS011;39400;49.744;7.012;2022-10-16T13:47:23;7.25;;;3.90;;
33453;SDS011;39400;49.744;7.012;2022-10-16T13:52:25;5.05;;;3.05;;
33453;SDS011;39400;49.744;7.012;2022-10-16T13:54:53;7.35;;;3.67;;
33453;SDS011;39400;49.744;7.012;2022-10-16T13:57:27;5.68;;;3.17;;
33453;SDS011;39400;49.744;7.012;2022-10-16T13:59:54;7.90;;;3.25;;
33453;SDS011;39400;49.744;7.012;2022-10-16T14:02:32;4.43;;;3.50;;
33453;SDS011;39400;49.744;7.012;2022-10-16T14:05:02;6.65;;;3.58;;
33453;SDS011;39400;49.744;7.012;2022-10-16T14:07:34;6.18;;;3.72;;
33453;SDS011;39400;49.744;7.012;2022-10-16T14:10:48;3.97;;;3.35;;
33453;SDS011;39400;49.744;7.012;2022-10-16T14:12:58;4.82;;;3.97;;
33453;SDS011;39400;49.744;7.012;2022-10-16T14:15:27;5.72;;;4.53;;
33453;SDS011;39400;49.744;7.012;2022-10-16T14:17:57;8.02;;;5.20;;
33453;SDS011;39400;49.744;7.012;2022-10-16T14:20:26;6.40;;;5.25;;
33453;SDS011;39400;49.744;7.012;2022-10-16T14:23:02;8.85;;;5.97;;
33453;SDS011;39400;49.744;7.012;2022-10-16T14:25:31;8.57;;;6.35;;
33453;SDS011;39400;49.744;7.012;2022-10-16T14:30:33;8.32;;;5.53;;
33453;SDS011;39400;49.744;7.012;2022-10-16T14:33:04;6.25;;;5.18;;
33453;SDS011;39400;49.744;7.012;2022-10-16T14:38:02;7.97;;;5.33;;
33453;SDS011;39400;49.744;7.012;2022-10-16T14:40:35;7.07;;;4.95;;
33453;SDS011;39400;49.744;7.012;2022-10-16T14:43:04;8.95;;;4.40;;
33453;SDS011;39400;49.744;7.012;2022-10-16T14:45:32;5.35;;;4.03;;
33453;SDS011;39400;49.744;7.012;2022-10-16T14:48:03;5.80;;;3.65;;
33453;SDS011;39400;49.744;7.012;2022-10-16T14:50:45;6.05;;;3.10;;
33453;SDS011;39400;49.744;7.012;2022-10-16T14:53:13;7.38;;;2.85;;
33453;SDS011;39400;49.744;7.012;2022-10-16T14:55:40;4.13;;;2.13;;
33453;SDS011;39400;49.744;7.012;2022-10-16T14:58:19;3.83;;;3.08;;
33453;SDS011;39400;49.744;7.012;2022-10-16T15:00:49;3.47;;;2.92;;
33453;SDS011;39400;49.744;7.012;2022-10-16T15:03:16;6.38;;;3.08;;
33453;SDS011;39400;49.744;7.012;2022-10-16T15:05:43;8.65;;;4.63;;
33453;SDS011;39400;49.744;7.012;2022-10-16T15:08:10;6.80;;;2.75;;
33453;SDS011;39400;49.744;7.012;2022-10-16T15:10:40;4.18;;;3.28;;
33453;SDS011;39400;49.744;7.012;2022-10-16T15:13:11;4.90;;;2.75;;
33453;SDS011;39400;49.744;7.012;2022-10-16T15:18:18;5.28;;;2.72;;
33453;SDS011;39400;49.744;7.012;2022-10-16T15:20:49;4.40;;;2.47;;
33453;SDS011;39400;49.744;7.012;2022-10-16T15:23:17;5.07;;;2.20;;
33453;SDS011;39400;49.744;7.012;2022-10-16T15:25:47;5.55;;;2.63;;
33453;SDS011;39400;49.744;7.012;2022-10-16T15:28:16;3.72;;;2.45;;
33453;SDS011;39400;49.744;7.012;2022-10-16T15:30:45;5.22;;;2.10;;
33453;SDS011;39400;49.744;7.012;2022-10-16T15:33:16;3.83;;;2.20;;
33453;SDS011;39400;49.744;7.012;2022-10-16T15:35:48;5.13;;;2.58;;
33453;SDS011;39400;49.744;7.012;2022-10-16T15:38:17;6.30;;;2.63;;
33453;SDS011;39400;49.744;7.012;2022-10-16T15:40:47;7.05;;;2.50;;
33453;SDS011;39400;49.744;7.012;2022-10-16T15:43:15;5.75;;;2.58;;
33453;SDS011;39400;49.744;7.012;2022-10-16T15:45:42;4.68;;;2.20;;
33453;SDS011;39400;49.744;7.012;2022-10-16T15:48:13;5.68;;;2.38;;
33453;SDS011;39400;49.744;7.012;2022-10-16T15:50:40;3.28;;;2.42;;
33453;SDS011;39400;49.744;7.012;2022-10-16T15:53:14;9.45;;;3.55;;
33453;SDS011;39400;49.744;7.012;2022-10-16T15:55:41;3.33;;;3.03;;
33453;SDS011;39400;49.744;7.012;2022-10-16T15:58:08;4.10;;;2.10;;
33453;SDS011;39400;49.744;7.012;2022-10-16T16:00:35;4.28;;;1.75;;
33453;SDS011;39400;49.744;7.012;2022-10-16T16:03:02;3.40;;;1.98;;
33453;SDS011;39400;49.744;7.012;2022-10-16T16:05:29;3.53;;;2.20;;
33453;SDS011;39400;49.744;7.012;2022-10-16T16:07:56;7.43;;;4.95;;
33453;SDS011;39400;49.744;7.012;2022-10-16T16:10:23;6.32;;;5.75;;
33453;SDS011;39400;49.744;7.012;2022-10-16T16:12:51;2.42;;;2.15;;
33453;SDS011;39400;49.744;7.012;2022-10-16T16:15:20;4.15;;;1.85;;
33453;SDS011;39400;49.744;7.012;2022-10-16T16:17:48;4.60;;;2.92;;
33453;SDS011;39400;49.744;7.012;2022-10-16T16:20:15;3.72;;;2.30;;
33453;SDS011;39400;49.744;7.012;2022-10-16T16:22:42;3.95;;;2.45;;
33453;SDS011;39400;49.744;7.012;2022-10-16T16:25:09;4.20;;;2.38;;
33453;SDS011;39400;49.744;7.012;2022-10-16T16:27:37;3.35;;;2.80;;
33453;SDS011;39400;49.744;7.012;2022-10-16T16:30:05;3.03;;;2.40;;
33453;SDS011;39400;49.744;7.012;2022-10-16T16:32:34;3.47;;;2.78;;
33453;SDS011;39400;49.744;7.012;2022-10-16T16:35:02;11.23;;;2.35;;
33453;SDS011;39400;49.744;7.012;2022-10-16T16:37:30;13.80;;;4.13;;
33453;SDS011;39400;49.744;7.012;2022-10-16T16:39:57;9.50;;;3.78;;
33453;SDS011;39400;49.744;7.012;2022-10-16T16:42:25;6.70;;;3.35;;
33453;SDS011;39400;49.744;7.012;2022-10-16T16:44:53;8.25;;;4.40;;
33453;SDS011;39400;49.744;7.012;2022-10-16T16:47:20;5.45;;;3.55;;
33453;SDS011;39400;49.744;7.012;2022-10-16T16:49:47;8.20;;;5.47;;
33453;SDS011;39400;49.744;7.012;2022-10-16T16:52:14;6.07;;;4.00;;
33453;SDS011;39400;49.744;7.012;2022-10-16T16:54:42;10.18;;;5.10;;
33453;SDS011;39400;49.744;7.012;2022-10-16T16:57:10;20.70;;;12.05;;
33453;SDS011;39400;49.744;7.012;2022-10-16T16:59:37;11.05;;;7.93;;
33453;SDS011;39400;49.744;7.012;2022-10-16T17:02:04;6.55;;;4.82;;
33453;SDS011;39400;49.744;7.012;2022-10-16T17:04:32;9.55;;;5.50;;
33453;SDS011;39400;49.744;7.012;2022-10-16T17:06:59;8.02;;;5.60;;
33453;SDS011;39400;49.744;7.012;2022-10-16T17:09:26;12.20;;;6.50;;